sensor_id;sensor_type;location;lat;lon;timestamp;pressure;altitude;pressure_sealevel;temperature;humidity
42335;BME280;27986;42.700;24.178;2022-08-01T05:01:29;93649.56;;;19.01;62.90
42335;BME280;27986;42.700;24.178;2022-08-01T05:03:55;93633.72;;;19.34;61.01
42335;BME280;27986;42.700;24.178;2022-08-01T05:06:20;93629.75;;;19.74;59.92
42335;BME280;27986;42.700;24.178;2022-08-01T05:08:46;93632.72;;;19.93;57.89
42335;BME280;27986;42.700;24.178;2022-08-01T05:11:11;93630.38;;;19.82;58.17
42335;BME280;27986;42.700;24.178;2022-08-01T05:13:36;93628.72;;;19.79;59.31
42335;BME280;27986;42.700;24.178;2022-08-01T05:16:02;93633.59;;;19.86;58.69
42335;BME280;27986;42.700;24.178;2022-08-01T05:18:28;93641.34;;;20.03;58.31
42335;BME280;27986;42.700;24.178;2022-08-01T05:20:54;93617.91;;;19.87;58.41
42335;BME280;27986;42.700;24.178;2022-08-01T05:23:20;93643.06;;;20.25;57.52
42335;BME280;27986;42.700;24.178;2022-08-01T05:25:45;93623.97;;;20.38;56.66
42335;BME280;27986;42.700;24.178;2022-08-01T05:28:11;93625.47;;;20.39;54.34
42335;BME280;27986;42.700;24.178;2022-08-01T05:30:36;93630.59;;;20.40;56.20
42335;BME280;27986;42.700;24.178;2022-08-01T05:33:01;93630.53;;;20.58;55.55
42335;BME280;27986;42.700;24.178;2022-08-01T05:35:27;93610.63;;;20.60;54.68
42335;BME280;27986;42.700;24.178;2022-08-01T05:37:52;93617.00;;;20.21;51.62
42335;BME280;27986;42.700;24.178;2022-08-01T05:40:18;93628.06;;;19.98;52.39
42335;BME280;27986;42.700;24.178;2022-08-01T05:42:43;93609.41;;;20.07;51.25
42335;BME280;27986;42.700;24.178;2022-08-01T05:45:09;93616.19;;;19.75;51.55
42335;BME280;27986;42.700;24.178;2022-08-01T05:47:35;93611.63;;;19.62;50.88
42335;BME280;27986;42.700;24.178;2022-08-01T05:50:01;93607.19;;;19.51;52.00
42335;BME280;27986;42.700;24.178;2022-08-01T05:52:26;93622.00;;;19.40;51.29
42335;BME280;27986;42.700;24.178;2022-08-01T05:54:52;93599.75;;;19.21;51.91
42335;BME280;27986;42.700;24.178;2022-08-01T05:57:17;93602.72;;;19.13;51.85
42335;BME280;27986;42.700;24.178;2022-08-01T05:59:43;93593.56;;;18.98;51.77
42335;BME280;27986;42.700;24.178;2022-08-01T06:02:08;93612.94;;;19.17;52.18
42335;BME280;27986;42.700;24.178;2022-08-01T06:04:34;93603.09;;;19.00;51.69
42335;BME280;27986;42.700;24.178;2022-08-01T06:06:59;93582.13;;;18.98;52.00
42335;BME280;27986;42.700;24.178;2022-08-01T06:09:25;93593.81;;;19.09;51.59
42335;BME280;27986;42.700;24.178;2022-08-01T06:11:50;93607.75;;;19.23;50.29
42335;BME280;27986;42.700;24.178;2022-08-01T06:14:16;93592.00;;;19.31;49.57
42335;BME280;27986;42.700;24.178;2022-08-01T06:17:03;93610.09;;;19.34;50.91
42335;BME280;27986;42.700;24.178;2022-08-01T06:19:29;93615.31;;;19.28;51.08
42335;BME280;27986;42.700;24.178;2022-08-01T06:21:54;93619.28;;;19.42;49.81
42335;BME280;27986;42.700;24.178;2022-08-01T06:24:20;93609.53;;;19.45;50.26
42335;BME280;27986;42.700;24.178;2022-08-01T06:26:47;93620.97;;;19.45;51.00
42335;BME280;27986;42.700;24.178;2022-08-01T06:29:13;93547.41;;;19.19;50.74
42335;BME280;27986;42.700;24.178;2022-08-01T06:31:38;93610.03;;;19.51;47.77
42335;BME280;27986;42.700;24.178;2022-08-01T06:34:04;93630.13;;;19.61;49.76
42335;BME280;27986;42.700;24.178;2022-08-01T06:36:29;93592.78;;;19.59;50.21
42335;BME280;27986;42.700;24.178;2022-08-01T06:38:55;93584.03;;;19.57;50.25
42335;BME280;27986;42.700;24.178;2022-08-01T06:41:20;93604.53;;;19.63;50.51
42335;BME280;27986;42.700;24.178;2022-08-01T06:43:46;93601.53;;;19.61;50.24
42335;BME280;27986;42.700;24.178;2022-08-01T06:46:11;93591.69;;;19.54;49.05
42335;BME280;27986;42.700;24.178;2022-08-01T06:48:37;93620.75;;;19.78;47.21
42335;BME280;27986;42.700;24.178;2022-08-01T06:51:04;93617.47;;;19.91;49.97
42335;BME280;27986;42.700;24.178;2022-08-01T06:53:33;93616.72;;;19.90;51.18
42335;BME280;27986;42.700;24.178;2022-08-01T06:55:59;93606.53;;;20.07;49.27
42335;BME280;27986;42.700;24.178;2022-08-01T06:58:25;93601.34;;;20.32;45.63
42335;BME280;27986;42.700;24.178;2022-08-01T07:00:50;93619.09;;;20.77;43.48
42335;BME280;27986;42.700;24.178;2022-08-01T07:03:16;93596.19;;;20.77;43.55
42335;BME280;27986;42.700;24.178;2022-08-01T07:05:41;93602.97;;;20.82;43.06
42335;BME280;27986;42.700;24.178;2022-08-01T07:08:07;93601.00;;;21.03;43.04
42335;BME280;27986;42.700;24.178;2022-08-01T07:10:32;93617.28;;;21.01;43.24
42335;BME280;27986;42.700;24.178;2022-08-01T07:12:57;93628.47;;;20.87;43.37
42335;BME280;27986;42.700;24.178;2022-08-01T07:15:23;93611.56;;;20.91;42.08
42335;BME280;27986;42.700;24.178;2022-08-01T07:17:52;93631.03;;;21.22;42.35
42335;BME280;27986;42.700;24.178;2022-08-01T07:20:17;93631.66;;;21.11;41.99
42335;BME280;27986;42.700;24.178;2022-08-01T07:22:43;93626.97;;;21.34;42.56
42335;BME280;27986;42.700;24.178;2022-08-01T07:25:09;93614.72;;;21.44;41.93
42335;BME280;27986;42.700;24.178;2022-08-01T07:27:35;93618.19;;;21.42;41.76
42335;BME280;27986;42.700;24.178;2022-08-01T07:30:01;93646.28;;;21.53;41.64
42335;BME280;27986;42.700;24.178;2022-08-01T07:32:26;93634.97;;;21.46;41.90
42335;BME280;27986;42.700;24.178;2022-08-01T07:34:52;93603.72;;;21.21;41.88
42335;BME280;27986;42.700;24.178;2022-08-01T07:37:18;93609.75;;;21.25;42.23
42335;BME280;27986;42.700;24.178;2022-08-01T07:39:43;93615.47;;;21.25;42.35
42335;BME280;27986;42.700;24.178;2022-08-01T07:42:09;93610.66;;;21.18;42.03
42335;BME280;27986;42.700;24.178;2022-08-01T07:44:35;93613.34;;;21.25;42.13
42335;BME280;27986;42.700;24.178;2022-08-01T07:47:01;93615.97;;;21.31;42.27
42335;BME280;27986;42.700;24.178;2022-08-01T07:49:26;93623.50;;;21.46;41.95
42335;BME280;27986;42.700;24.178;2022-08-01T07:51:52;93607.94;;;21.39;42.08
42335;BME280;27986;42.700;24.178;2022-08-01T07:54:36;93625.75;;;21.47;41.99
42335;BME280;27986;42.700;24.178;2022-08-01T07:57:02;93623.50;;;21.36;41.99
42335;BME280;27986;42.700;24.178;2022-08-01T07:59:28;93627.41;;;21.50;41.84
42335;BME280;27986;42.700;24.178;2022-08-01T08:01:53;93637.09;;;21.45;42.70
42335;BME280;27986;42.700;24.178;2022-08-01T08:04:19;93633.59;;;21.47;42.56
42335;BME280;27986;42.700;24.178;2022-08-01T08:06:44;93624.25;;;21.37;42.18
42335;BME280;27986;42.700;24.178;2022-08-01T08:09:13;93624.41;;;21.39;41.88
42335;BME280;27986;42.700;24.178;2022-08-01T08:11:38;93641.47;;;21.46;42.55
42335;BME280;27986;42.700;24.178;2022-08-01T08:14:03;93613.81;;;21.51;41.91
42335;BME280;27986;42.700;24.178;2022-08-01T08:16:29;93627.22;;;21.68;42.10
42335;BME280;27986;42.700;24.178;2022-08-01T08:18:54;93626.88;;;21.83;41.60
42335;BME280;27986;42.700;24.178;2022-08-01T08:21:19;93611.63;;;21.80;41.96
42335;BME280;27986;42.700;24.178;2022-08-01T08:23:45;93605.19;;;21.60;41.42
42335;BME280;27986;42.700;24.178;2022-08-01T08:26:29;93609.97;;;21.87;41.67
42335;BME280;27986;42.700;24.178;2022-08-01T08:28:55;93607.28;;;21.70;41.99
42335;BME280;27986;42.700;24.178;2022-08-01T08:31:21;93622.09;;;21.66;41.68
42335;BME280;27986;42.700;24.178;2022-08-01T08:33:46;93614.94;;;21.77;42.00
42335;BME280;27986;42.700;24.178;2022-08-01T08:36:13;93597.91;;;21.79;41.97
42335;BME280;27986;42.700;24.178;2022-08-01T08:38:39;93607.19;;;21.48;42.29
42335;BME280;27986;42.700;24.178;2022-08-01T08:41:04;93613.03;;;21.60;42.82
42335;BME280;27986;42.700;24.178;2022-08-01T08:43:30;93621.72;;;21.91;42.15
42335;BME280;27986;42.700;24.178;2022-08-01T08:45:56;93619.56;;;22.01;41.96
42335;BME280;27986;42.700;24.178;2022-08-01T08:48:21;93639.03;;;22.03;42.03
42335;BME280;27986;42.700;24.178;2022-08-01T08:50:47;93623.66;;;21.98;41.27
42335;BME280;27986;42.700;24.178;2022-08-01T08:53:14;93613.13;;;21.81;41.50
42335;BME280;27986;42.700;24.178;2022-08-01T08:55:42;93641.19;;;21.92;42.38
42335;BME280;27986;42.700;24.178;2022-08-01T08:58:12;93611.81;;;21.73;42.41
42335;BME280;27986;42.700;24.178;2022-08-01T09:00:39;93631.22;;;21.93;42.22
42335;BME280;27986;42.700;24.178;2022-08-01T09:03:05;93632.03;;;21.75;42.34
42335;BME280;27986;42.700;24.178;2022-08-01T09:05:31;93604.91;;;21.56;42.79
42335;BME280;27986;42.700;24.178;2022-08-01T09:07:57;93609.09;;;21.65;42.67
42335;BME280;27986;42.700;24.178;2022-08-01T09:10:23;93609.41;;;21.59;42.03
42335;BME280;27986;42.700;24.178;2022-08-01T09:13:14;93623.03;;;21.49;43.08
42335;BME280;27986;42.700;24.178;2022-08-01T09:15:52;93627.84;;;21.56;42.97
42335;BME280;27986;42.700;24.178;2022-08-01T09:23:42;93616.97;;;21.64;42.96
42335;BME280;27986;42.700;24.178;2022-08-01T09:26:19;93629.31;;;21.77;43.22
42335;BME280;27986;42.700;24.178;2022-08-01T09:28:46;93616.63;;;21.80;43.01
42335;BME280;27986;42.700;24.178;2022-08-01T09:31:17;93606.34;;;21.77;43.26
42335;BME280;27986;42.700;24.178;2022-08-01T09:33:54;93605.44;;;21.74;43.22
42335;BME280;27986;42.700;24.178;2022-08-01T09:36:23;93605.81;;;22.09;42.50
42335;BME280;27986;42.700;24.178;2022-08-01T09:38:50;93601.72;;;22.43;41.98
42335;BME280;27986;42.700;24.178;2022-08-01T09:41:16;93612.69;;;22.57;41.13
42335;BME280;27986;42.700;24.178;2022-08-01T09:43:48;93617.03;;;22.89;40.61
42335;BME280;27986;42.700;24.178;2022-08-01T09:46:14;93609.59;;;22.95;40.99
42335;BME280;27986;42.700;24.178;2022-08-01T09:49:03;93614.78;;;23.09;40.57
42335;BME280;27986;42.700;24.178;2022-08-01T09:51:36;93614.44;;;23.14;39.68
42335;BME280;27986;42.700;24.178;2022-08-01T09:54:03;93605.84;;;23.26;40.16
42335;BME280;27986;42.700;24.178;2022-08-01T09:56:40;93582.91;;;23.49;39.95
42335;BME280;27986;42.700;24.178;2022-08-01T09:59:10;93606.19;;;23.86;39.14
42335;BME280;27986;42.700;24.178;2022-08-01T10:01:55;93595.53;;;23.77;38.46
42335;BME280;27986;42.700;24.178;2022-08-01T10:04:22;93582.25;;;23.72;38.36
42335;BME280;27986;42.700;24.178;2022-08-01T10:06:50;93584.91;;;23.80;38.09
42335;BME280;27986;42.700;24.178;2022-08-01T10:09:29;93585.25;;;23.74;38.21
42335;BME280;27986;42.700;24.178;2022-08-01T10:11:56;93602.13;;;23.68;38.10
42335;BME280;27986;42.700;24.178;2022-08-01T10:14:27;93592.31;;;23.95;37.92
42335;BME280;27986;42.700;24.178;2022-08-01T10:16:57;93609.97;;;23.89;37.86
42335;BME280;27986;42.700;24.178;2022-08-01T10:19:24;93601.09;;;23.97;37.52
42335;BME280;27986;42.700;24.178;2022-08-01T10:21:53;93596.16;;;23.76;37.95
42335;BME280;27986;42.700;24.178;2022-08-01T10:24:23;93584.66;;;23.87;37.80
42335;BME280;27986;42.700;24.178;2022-08-01T10:26:52;93597.22;;;24.27;37.45
42335;BME280;27986;42.700;24.178;2022-08-01T10:29:21;93560.91;;;24.34;36.90
42335;BME280;27986;42.700;24.178;2022-08-01T10:31:51;93591.97;;;24.59;36.59
42335;BME280;27986;42.700;24.178;2022-08-01T10:34:17;93584.22;;;24.38;36.78
42335;BME280;27986;42.700;24.178;2022-08-01T10:36:46;93580.06;;;24.64;36.86
42335;BME280;27986;42.700;24.178;2022-08-01T10:39:12;93595.00;;;24.49;36.91
42335;BME280;27986;42.700;24.178;2022-08-01T10:41:38;93572.69;;;24.50;36.76
42335;BME280;27986;42.700;24.178;2022-08-01T10:44:08;93589.56;;;24.90;36.90
42335;BME280;27986;42.700;24.178;2022-08-01T10:46:37;93596.84;;;24.68;35.93
42335;BME280;27986;42.700;24.178;2022-08-01T10:49:15;93584.59;;;24.56;36.34
42335;BME280;27986;42.700;24.178;2022-08-01T10:51:42;93595.53;;;24.94;35.75
42335;BME280;27986;42.700;24.178;2022-08-01T10:54:10;93569.59;;;24.94;35.64
42335;BME280;27986;42.700;24.178;2022-08-01T10:56:47;93595.25;;;24.65;35.86
42335;BME280;27986;42.700;24.178;2022-08-01T10:59:27;93578.72;;;24.42;36.10
42335;BME280;27986;42.700;24.178;2022-08-01T11:02:10;93568.19;;;24.95;35.73
42335;BME280;27986;42.700;24.178;2022-08-01T11:05:02;93571.53;;;25.52;36.66
42335;BME280;27986;42.700;24.178;2022-08-01T11:07:43;93580.63;;;24.98;35.58
42335;BME280;27986;42.700;24.178;2022-08-01T11:10:19;93560.78;;;25.41;35.63
42335;BME280;27986;42.700;24.178;2022-08-01T11:12:47;93566.09;;;25.33;35.08
42335;BME280;27986;42.700;24.178;2022-08-01T11:17:45;93597.38;;;25.25;35.08
42335;BME280;27986;42.700;24.178;2022-08-01T11:20:15;93576.16;;;25.32;34.30
42335;BME280;27986;42.700;24.178;2022-08-01T11:25:26;93562.06;;;25.38;35.14
42335;BME280;27986;42.700;24.178;2022-08-01T11:30:49;93559.34;;;25.79;34.07
42335;BME280;27986;42.700;24.178;2022-08-01T11:33:17;93574.59;;;25.94;34.13
42335;BME280;27986;42.700;24.178;2022-08-01T11:38:48;93579.44;;;25.52;35.11
42335;BME280;27986;42.700;24.178;2022-08-01T11:41:27;93578.44;;;25.47;34.36
42335;BME280;27986;42.700;24.178;2022-08-01T11:43:54;93576.03;;;25.55;35.20
42335;BME280;27986;42.700;24.178;2022-08-01T11:49:35;93569.09;;;25.35;34.55
42335;BME280;27986;42.700;24.178;2022-08-01T11:52:14;93556.75;;;25.46;34.96
42335;BME280;27986;42.700;24.178;2022-08-01T11:54:46;93562.19;;;25.66;35.06
42335;BME280;27986;42.700;24.178;2022-08-01T11:57:24;93574.78;;;25.21;35.06
42335;BME280;27986;42.700;24.178;2022-08-01T11:59:55;93557.66;;;25.37;35.15
42335;BME280;27986;42.700;24.178;2022-08-01T12:02:25;93561.28;;;25.89;34.65
42335;BME280;27986;42.700;24.178;2022-08-01T12:05:04;93556.69;;;26.36;33.50
42335;BME280;27986;42.700;24.178;2022-08-01T12:07:31;93565.47;;;26.80;33.59
42335;BME280;27986;42.700;24.178;2022-08-01T12:10:05;93560.56;;;26.41;33.19
42335;BME280;27986;42.700;24.178;2022-08-01T12:12:32;93557.88;;;26.73;33.29
42335;BME280;27986;42.700;24.178;2022-08-01T12:15:04;93539.97;;;26.35;33.66
42335;BME280;27986;42.700;24.178;2022-08-01T12:17:32;93552.13;;;26.59;33.11
42335;BME280;27986;42.700;24.178;2022-08-01T12:19:58;93552.59;;;26.28;33.37
42335;BME280;27986;42.700;24.178;2022-08-01T12:22:24;93563.88;;;25.96;33.79
42335;BME280;27986;42.700;24.178;2022-08-01T12:24:50;93537.41;;;25.49;34.34
42335;BME280;27986;42.700;24.178;2022-08-01T12:27:28;93545.78;;;25.57;34.06
42335;BME280;27986;42.700;24.178;2022-08-01T12:29:54;93551.25;;;25.64;34.13
42335;BME280;27986;42.700;24.178;2022-08-01T12:32:31;93549.63;;;25.87;34.08
42335;BME280;27986;42.700;24.178;2022-08-01T12:37:31;93524.84;;;26.23;33.57
42335;BME280;27986;42.700;24.178;2022-08-01T12:39:57;93514.19;;;26.53;33.32
42335;BME280;27986;42.700;24.178;2022-08-01T12:42:24;93530.88;;;27.09;32.23
42335;BME280;27986;42.700;24.178;2022-08-01T12:44:51;93538.16;;;27.40;31.97
42335;BME280;27986;42.700;24.178;2022-08-01T12:47:18;93544.06;;;27.42;31.92
42335;BME280;27986;42.700;24.178;2022-08-01T12:49:45;93534.91;;;27.18;31.93
42335;BME280;27986;42.700;24.178;2022-08-01T12:52:12;93536.75;;;26.29;32.80
42335;BME280;27986;42.700;24.178;2022-08-01T12:55:15;93553.06;;;25.97;33.64
42335;BME280;27986;42.700;24.178;2022-08-01T12:57:45;93554.31;;;25.80;34.48
42335;BME280;27986;42.700;24.178;2022-08-01T13:00:25;93559.41;;;25.68;34.90
42335;BME280;27986;42.700;24.178;2022-08-01T13:05:52;93553.59;;;26.46;34.05
42335;BME280;27986;42.700;24.178;2022-08-01T13:08:24;93539.09;;;26.19;34.30
42335;BME280;27986;42.700;24.178;2022-08-01T13:11:03;93553.84;;;26.50;33.79
42335;BME280;27986;42.700;24.178;2022-08-01T13:16:08;93539.88;;;26.33;33.73
42335;BME280;27986;42.700;24.178;2022-08-01T13:18:35;93531.97;;;26.47;33.55
42335;BME280;27986;42.700;24.178;2022-08-01T13:21:08;93535.91;;;27.09;32.84
42335;BME280;27986;42.700;24.178;2022-08-01T13:23:34;93523.06;;;26.71;33.24
42335;BME280;27986;42.700;24.178;2022-08-01T13:26:00;93526.56;;;26.97;33.28
42335;BME280;27986;42.700;24.178;2022-08-01T13:28:27;93526.16;;;27.32;31.62
42335;BME280;27986;42.700;24.178;2022-08-01T13:31:05;93530.88;;;27.39;32.34
42335;BME280;27986;42.700;24.178;2022-08-01T13:33:46;93533.84;;;26.98;32.83
42335;BME280;27986;42.700;24.178;2022-08-01T13:36:13;93520.09;;;26.69;33.54
42335;BME280;27986;42.700;24.178;2022-08-01T13:38:40;93509.81;;;26.65;33.77
42335;BME280;27986;42.700;24.178;2022-08-01T13:41:24;93512.94;;;26.42;33.91
42335;BME280;27986;42.700;24.178;2022-08-01T13:43:49;93520.59;;;26.65;33.49
42335;BME280;27986;42.700;24.178;2022-08-01T13:46:15;93526.31;;;26.49;33.71
42335;BME280;27986;42.700;24.178;2022-08-01T13:48:41;93528.97;;;26.59;33.42
42335;BME280;27986;42.700;24.178;2022-08-01T13:51:07;93544.81;;;26.85;33.37
42335;BME280;27986;42.700;24.178;2022-08-01T13:53:32;93526.59;;;26.28;33.19
42335;BME280;27986;42.700;24.178;2022-08-01T13:55:58;93538.72;;;26.65;33.09
42335;BME280;27986;42.700;24.178;2022-08-01T13:58:23;93513.09;;;26.87;32.86
42335;BME280;27986;42.700;24.178;2022-08-01T14:00:49;93519.94;;;27.08;33.76
42335;BME280;27986;42.700;24.178;2022-08-01T14:03:14;93533.47;;;27.33;32.70
42335;BME280;27986;42.700;24.178;2022-08-01T14:05:42;93534.72;;;26.86;32.96
42335;BME280;27986;42.700;24.178;2022-08-01T14:08:08;93537.06;;;26.90;33.11
42335;BME280;27986;42.700;24.178;2022-08-01T14:10:34;93532.88;;;27.20;33.31
42335;BME280;27986;42.700;24.178;2022-08-01T14:12:59;93531.81;;;27.00;32.76
42335;BME280;27986;42.700;24.178;2022-08-01T14:15:25;93540.53;;;26.86;33.53
42335;BME280;27986;42.700;24.178;2022-08-01T14:17:51;93531.66;;;26.69;33.33
42335;BME280;27986;42.700;24.178;2022-08-01T14:20:16;93534.84;;;26.47;33.75
42335;BME280;27986;42.700;24.178;2022-08-01T14:22:45;93524.38;;;26.54;33.59
42335;BME280;27986;42.700;24.178;2022-08-01T14:25:11;93552.88;;;26.59;33.93
42335;BME280;27986;42.700;24.178;2022-08-01T14:27:36;93529.41;;;26.53;33.57
42335;BME280;27986;42.700;24.178;2022-08-01T14:30:05;93546.94;;;26.85;33.18
42335;BME280;27986;42.700;24.178;2022-08-01T14:32:31;93527.59;;;26.46;33.83
42335;BME280;27986;42.700;24.178;2022-08-01T14:35:03;93549.38;;;26.22;34.20
42335;BME280;27986;42.700;24.178;2022-08-01T14:37:29;93529.50;;;26.55;33.58
42335;BME280;27986;42.700;24.178;2022-08-01T14:39:56;93543.09;;;26.94;32.71
42335;BME280;27986;42.700;24.178;2022-08-01T14:42:21;93561.53;;;26.46;32.99
42335;BME280;27986;42.700;24.178;2022-08-01T14:44:46;93543.72;;;26.24;33.38
42335;BME280;27986;42.700;24.178;2022-08-01T14:47:12;93535.47;;;26.18;33.54
42335;BME280;27986;42.700;24.178;2022-08-01T14:49:37;93538.44;;;25.67;34.17
42335;BME280;27986;42.700;24.178;2022-08-01T14:52:03;93560.69;;;25.65;34.83
42335;BME280;27986;42.700;24.178;2022-08-01T14:54:28;93556.63;;;25.70;34.56
42335;BME280;27986;42.700;24.178;2022-08-01T14:56:54;93554.94;;;26.31;33.85
42335;BME280;27986;42.700;24.178;2022-08-01T14:59:19;93544.63;;;26.68;32.97
42335;BME280;27986;42.700;24.178;2022-08-01T15:01:45;93552.69;;;26.99;33.22
42335;BME280;27986;42.700;24.178;2022-08-01T15:04:10;93543.41;;;26.86;32.83
42335;BME280;27986;42.700;24.178;2022-08-01T15:06:36;93538.72;;;26.65;32.47
42335;BME280;27986;42.700;24.178;2022-08-01T15:09:02;93553.06;;;26.91;32.72
42335;BME280;27986;42.700;24.178;2022-08-01T15:11:28;93544.81;;;26.85;32.26
42335;BME280;27986;42.700;24.178;2022-08-01T15:13:53;93553.91;;;26.80;32.91
42335;BME280;27986;42.700;24.178;2022-08-01T15:16:37;93572.13;;;27.10;32.45
42335;BME280;27986;42.700;24.178;2022-08-01T15:19:03;93550.69;;;26.87;32.41
42335;BME280;27986;42.700;24.178;2022-08-01T15:21:29;93553.78;;;27.19;31.99
42335;BME280;27986;42.700;24.178;2022-08-01T15:23:54;93551.75;;;26.94;32.10
42335;BME280;27986;42.700;24.178;2022-08-01T15:26:20;93547.28;;;26.91;32.36
42335;BME280;27986;42.700;24.178;2022-08-01T15:28:45;93549.94;;;26.73;32.83
42335;BME280;27986;42.700;24.178;2022-08-01T15:31:11;93560.34;;;26.78;32.67
42335;BME280;27986;42.700;24.178;2022-08-01T15:33:36;93548.53;;;26.88;32.99
42335;BME280;27986;42.700;24.178;2022-08-01T15:36:02;93556.56;;;27.17;32.33
42335;BME280;27986;42.700;24.178;2022-08-01T15:38:27;93530.16;;;26.68;33.00
42335;BME280;27986;42.700;24.178;2022-08-01T15:40:53;93541.72;;;26.40;33.65
42335;BME280;27986;42.700;24.178;2022-08-01T15:43:18;93534.63;;;26.29;33.58
42335;BME280;27986;42.700;24.178;2022-08-01T15:45:43;93554.75;;;26.27;33.49
42335;BME280;27986;42.700;24.178;2022-08-01T15:48:10;93553.00;;;26.08;33.34
42335;BME280;27986;42.700;24.178;2022-08-01T15:50:36;93539.78;;;25.78;34.43
42335;BME280;27986;42.700;24.178;2022-08-01T15:53:03;93550.84;;;25.95;34.08
42335;BME280;27986;42.700;24.178;2022-08-01T15:55:29;93564.34;;;26.04;34.88
42335;BME280;27986;42.700;24.178;2022-08-01T15:57:55;93563.56;;;25.90;34.55
42335;BME280;27986;42.700;24.178;2022-08-01T16:00:20;93560.53;;;25.74;34.89
42335;BME280;27986;42.700;24.178;2022-08-01T16:02:46;93555.59;;;25.77;35.02
42335;BME280;27986;42.700;24.178;2022-08-01T16:05:12;93565.03;;;25.77;34.65
42335;BME280;27986;42.700;24.178;2022-08-01T16:07:37;93541.06;;;25.49;34.67
42335;BME280;27986;42.700;24.178;2022-08-01T16:10:04;93575.63;;;25.61;34.96
42335;BME280;27986;42.700;24.178;2022-08-01T16:12:29;93569.50;;;25.30;35.40
42335;BME280;27986;42.700;24.178;2022-08-01T16:14:55;93583.31;;;25.31;35.50
42335;BME280;27986;42.700;24.178;2022-08-01T16:17:21;93558.31;;;24.98;35.84
42335;BME280;27986;42.700;24.178;2022-08-01T16:19:47;93562.31;;;24.93;35.95
42335;BME280;27986;42.700;24.178;2022-08-01T16:22:15;93556.06;;;24.85;36.17
42335;BME280;27986;42.700;24.178;2022-08-01T16:24:40;93564.84;;;24.87;36.49
42335;BME280;27986;42.700;24.178;2022-08-01T16:27:06;93554.59;;;24.73;36.63
42335;BME280;27986;42.700;24.178;2022-08-01T16:29:31;93565.84;;;24.80;36.58
42335;BME280;27986;42.700;24.178;2022-08-01T16:31:58;93548.50;;;24.43;37.11
42335;BME280;27986;42.700;24.178;2022-08-01T16:34:23;93584.59;;;24.56;37.71
42335;BME280;27986;42.700;24.178;2022-08-01T16:36:49;93559.88;;;24.29;36.97
42335;BME280;27986;42.700;24.178;2022-08-01T16:39:17;93584.22;;;24.50;37.14
42335;BME280;27986;42.700;24.178;2022-08-01T16:41:42;93574.97;;;24.39;37.27
42335;BME280;27986;42.700;24.178;2022-08-01T16:44:08;93587.72;;;24.36;37.40
42335;BME280;27986;42.700;24.178;2022-08-01T16:46:33;93580.56;;;24.37;37.78
42335;BME280;27986;42.700;24.178;2022-08-01T16:48:58;93571.53;;;24.31;38.02
42335;BME280;27986;42.700;24.178;2022-08-01T16:51:24;93596.97;;;24.23;37.92
42335;BME280;27986;42.700;24.178;2022-08-01T16:53:50;93577.81;;;24.16;38.60
42335;BME280;27986;42.700;24.178;2022-08-01T16:56:15;93591.47;;;24.15;38.36
42335;BME280;27986;42.700;24.178;2022-08-01T16:58:41;93581.69;;;24.09;38.58
42335;BME280;27986;42.700;24.178;2022-08-01T17:01:07;93585.81;;;24.06;38.72
42335;BME280;27986;42.700;24.178;2022-08-01T17:03:32;93600.47;;;23.98;39.38
42335;BME280;27986;42.700;24.178;2022-08-01T17:05:58;93589.06;;;24.00;39.51
42335;BME280;27986;42.700;24.178;2022-08-01T17:08:23;93592.81;;;24.03;39.29
42335;BME280;27986;42.700;24.178;2022-08-01T17:10:49;93574.91;;;23.93;39.60
42335;BME280;27986;42.700;24.178;2022-08-01T17:13:14;93577.41;;;23.98;39.33
42335;BME280;27986;42.700;24.178;2022-08-01T17:15:40;93583.94;;;23.99;39.64
42335;BME280;27986;42.700;24.178;2022-08-01T17:18:06;93599.72;;;23.98;39.73
42335;BME280;27986;42.700;24.178;2022-08-01T17:20:31;93578.66;;;23.83;40.02
42335;BME280;27986;42.700;24.178;2022-08-01T17:22:58;93601.31;;;23.89;40.31
42335;BME280;27986;42.700;24.178;2022-08-01T17:25:23;93574.06;;;23.57;40.31
42335;BME280;27986;42.700;24.178;2022-08-01T17:27:49;93583.25;;;23.65;40.86
42335;BME280;27986;42.700;24.178;2022-08-01T17:30:17;93577.56;;;23.55;40.79
42335;BME280;27986;42.700;24.178;2022-08-01T17:32:43;93606.28;;;23.65;41.12
42335;BME280;27986;42.700;24.178;2022-08-01T17:35:09;93607.16;;;23.68;40.74
42335;BME280;27986;42.700;24.178;2022-08-01T17:37:37;93609.78;;;23.64;40.67
42335;BME280;27986;42.700;24.178;2022-08-01T17:40:04;93601.34;;;23.56;41.00
42335;BME280;27986;42.700;24.178;2022-08-01T17:42:29;93587.13;;;23.37;41.19
42335;BME280;27986;42.700;24.178;2022-08-01T17:44:56;93607.75;;;23.33;41.27
42335;BME280;27986;42.700;24.178;2022-08-01T17:47:22;93603.72;;;23.26;41.47
42335;BME280;27986;42.700;24.178;2022-08-01T17:49:48;93584.91;;;23.14;41.85
42335;BME280;27986;42.700;24.178;2022-08-01T17:52:13;93613.00;;;23.37;41.72
42335;BME280;27986;42.700;24.178;2022-08-01T17:54:39;93604.84;;;23.21;41.83
42335;BME280;27986;42.700;24.178;2022-08-01T17:57:04;93607.00;;;23.33;41.67
42335;BME280;27986;42.700;24.178;2022-08-01T17:59:30;93610.38;;;23.29;41.81
42335;BME280;27986;42.700;24.178;2022-08-01T18:01:56;93601.25;;;23.33;41.85
42335;BME280;27986;42.700;24.178;2022-08-01T18:04:21;93624.13;;;23.30;41.86
42335;BME280;27986;42.700;24.178;2022-08-01T18:06:47;93637.03;;;23.29;41.50
42335;BME280;27986;42.700;24.178;2022-08-01T18:09:13;93636.47;;;23.21;41.80
42335;BME280;27986;42.700;24.178;2022-08-01T18:11:42;93627.59;;;22.96;41.78
42335;BME280;27986;42.700;24.178;2022-08-01T18:14:07;93606.91;;;22.88;42.25
42335;BME280;27986;42.700;24.178;2022-08-01T18:16:33;93626.47;;;22.80;42.55
42335;BME280;27986;42.700;24.178;2022-08-01T18:18:58;93638.34;;;22.95;42.77
42335;BME280;27986;42.700;24.178;2022-08-01T18:21:24;93650.44;;;22.94;42.87